Broadus, MT

1:06 AM MDT on July 21, 2017 (GMT -0600)
Cinch Buckle | | Change Station
Active Advisory: Fire Weather Warning

Elev 3114 ft 45.49 °N, 104.98 °W | Updated 3 seconds ago

Partly Cloudy
Partly Cloudy
73.8 °F
Feels Like 77 °F
N
4.5
Wind Variable Wind from WNW
Gusts 4.9 mph

Today
High -- | Low -- °F
--% Chance of Precip.
Yesterday
High -- | Low -- °F
Precip. -- in
Pressure 29.95 in
Visibility 10.0 miles
Clouds Clear
Heat Index 77 °F
Dew Point 60 °F
Humidity 61%
Rainfall 0.00 in
Snow Depth Not available.
5:33 AM 8:41 PM
Waning Crescent, 7% visible
METAR KW43 210635Z AUTO 14010G15KT 10SM CLR 21/13 A2995 RMK AO2 LTG DSNT SE
Pressure 29.95 in
Visibility 10.0 miles
Clouds Clear
Heat Index 77 °F
Dew Point 60 °F
Humidity 61%
Rainfall 0.00 in
Snow Depth Not available.
5:33 AM 8:41 PM
Waning Crescent, 7% visible
METAR KW43 210635Z AUTO 14010G15KT 10SM CLR 21/13 A2995 RMK AO2 LTG DSNT SE

Get Your Daily Forecast Email!

Thanks for signing up!

Be on the lookout for a verification email in your inbox.

You'll start receiving severe weather alerts in your inbox..

×

10-Day Weather Forecast

Almanac

Astronomy

Jul. 21, 2017 Rise Set
Actual Time
Civil Twilight
Nautical Twilight
Astronomical Twilight
Moon
Length of Visible Light
Length of Day
Tomorrow will be .
, % of the Moon is Illuminated

Today's Extremes

State Highs State Lows

Community

WunderPhotos

Category 6

Welcome to Category 6. This is the collective home for Weather Underground's featured writeups by Dr. Jeff Masters (right), Bob Henson (left), Chris Burt, and other regular contributors.

Nearby

Air Quality

  Air Quality AQ Index Pollutant
Not available.

Snow Depth

Station Depth Elevation

Earthquake Activity

City Distance Mag. Time & Date
Minimum magnitude displayed is 2.5.

Coastal Water Temperatures

Place Temperature

Stations

Nearby Weather Stations

Station Location Temp. Windchill Dew Point Humidity Wind Precip. Elev Updated Type
                   

Watches & Warnings

Fire Weather Warning
Issued: 8:54 PM MDT Jul. 20, 2017 – National Weather Service

... Red flag warning remains in effect from 9 am to 9 PM MDT
Friday...

* impacts: low humidities, hot temperatures, and strong gusty
winds will create erratic fire behavior and new fire starts.

* Affected area:
   in southeast Mt... fire weather zones 131 and 132.

* Counties affected:
   in south central Mt... Big Horn.
   In southeast Mt... Custer... Powder River... Rosebud... Treasure.

* Wind: northwest 10 to 20 mph with gusts up to 30 mph.

* Humidity: as low as 13 percent.

* Temperatures: in the lower 80s.

Precautionary/preparedness actions...

A red flag warning means that critical fire weather conditions are
either occurring now, or will shortly. A combination of strong
winds, low relative humidity, and warm temperatures can contribute
to extreme fire behavior.



Http://weather.Gov/Billings